الصفحة الرئيسية
METAR-TAF:

METAR-TAF

مطار :

بورت أوف سبين, ترينيداد, ترينيداد وتوباغو

دائرة عرض: 10-37N, خط طول: 061-21W, ارتفاع: 12 متر

مراقبة الطقس الحالي

تاريخ ووقت الإصدار 30 دقيقة قبل الساعة 07:00UTC
ريح 8 عقدة من الشرق
درجة الحرارة 25°درجة مئوية
الرطوبة 100%
ضغط 1012 hPa
الرؤية 10 كم أو أكثر
غيوم متفرقة على ارتفاع 1400 قدم
زخات في الجوار

METAR: TTPP 260700Z 09008KT 9999 VCSH SCT014 25/25 Q1012 NOSIG RMK VCSH NE E

زمن: 03:30 (07:30 UTC)

توقعات

تاريخ ووقت الإصدار 3ساعات و 30 دقيقة قبل الساعة 04:00UTC
التوقعات صالحة من26 الساعة 06 UTC إلى 27 الساعة 06 UTC
ريح 5 عقدة من الشرق
الرؤية 10 كم أو أكثر
غيوم متفرقة على ارتفاع 1500 قدم
غيوم متفرقة على ارتفاع 3800 قدم
مؤقت
من 26 الساعة 06 UTC إلى 26 الساعة 11 UTC
الرؤية: 6000 متر
زخات من المطر
أصبح
من 26 الساعة 12 UTC إلى 26 الساعة 14 UTC
ريح 12 عقدة من الشرق/الجنوب الشرقي
غيوم متفرقة على ارتفاع 2000 قدم

TAF: TTPP 260400Z 2606/2706 10005KT 9999 SCT015 SCT038 TEMPO 2606/2611 6000 SHRA BECMG 2612/2614 11012KT SCT020

أرصاد الطقس والتوقعات من أكثر من 4000 مطار (تقارير الطقس للمطار METAR والتنبؤ بالطقس بالمطارTAF).

المحطات المتاحة هي النقط الصفراء والحمراء على الخريطة.

حرك المؤشر فوق النقطة لمعرفة اسم المحطة.

ثم انقر لمعرفة أرصاد وتوقعات الطقس.

لتغيير الخارطة: اضغط على الأزرار الخضراء مع رمز الصليب الأسود للتكبير. على الزر الأخضر مع شرطة للتصغير، أو على الأسهم الخضراء للخرائط المجاورة.


METAR-TAF: